sensor_id;sensor_type;location;lat;lon;timestamp;P1;durP1;ratioP1;P2;durP2;ratioP2
13967;SDS011;39536;52.198;9.920;2023-02-22T00:01:19;26.13;;;17.77;;
13967;SDS011;39536;52.198;9.920;2023-02-22T00:03:59;27.60;;;17.93;;
13967;SDS011;39536;52.198;9.920;2023-02-22T00:06:26;24.57;;;17.27;;
13967;SDS011;39536;52.198;9.920;2023-02-22T00:08:53;22.73;;;17.33;;
13967;SDS011;39536;52.198;9.920;2023-02-22T00:11:22;25.53;;;17.40;;
13967;SDS011;39536;52.198;9.920;2023-02-22T00:13:49;23.07;;;16.90;;
13967;SDS011;39536;52.198;9.920;2023-02-22T00:16:17;25.53;;;17.17;;
13967;SDS011;39536;52.198;9.920;2023-02-22T00:18:45;28.43;;;17.80;;
13967;SDS011;39536;52.198;9.920;2023-02-22T00:21:13;27.00;;;17.17;;
13967;SDS011;39536;52.198;9.920;2023-02-22T00:23:41;25.67;;;17.57;;
13967;SDS011;39536;52.198;9.920;2023-02-22T00:26:10;24.03;;;17.07;;
13967;SDS011;39536;52.198;9.920;2023-02-22T00:28:39;26.43;;;16.77;;
13967;SDS011;39536;52.198;9.920;2023-02-22T00:31:06;20.23;;;15.67;;
13967;SDS011;39536;52.198;9.920;2023-02-22T00:33:33;19.90;;;15.60;;
13967;SDS011;39536;52.198;9.920;2023-02-22T00:36:00;26.17;;;16.00;;
13967;SDS011;39536;52.198;9.920;2023-02-22T00:38:27;20.37;;;16.37;;
13967;SDS011;39536;52.198;9.920;2023-02-22T00:40:54;20.80;;;15.60;;
13967;SDS011;39536;52.198;9.920;2023-02-22T00:43:20;24.23;;;16.50;;
13967;SDS011;39536;52.198;9.920;2023-02-22T00:45:50;23.17;;;16.90;;
13967;SDS011;39536;52.198;9.920;2023-02-22T00:48:18;25.23;;;17.00;;
13967;SDS011;39536;52.198;9.920;2023-02-22T00:50:44;19.73;;;15.03;;
13967;SDS011;39536;52.198;9.920;2023-02-22T00:53:13;24.20;;;17.17;;
13967;SDS011;39536;52.198;9.920;2023-02-22T00:55:40;20.30;;;14.57;;
13967;SDS011;39536;52.198;9.920;2023-02-22T00:58:07;22.33;;;17.20;;
13967;SDS011;39536;52.198;9.920;2023-02-22T01:00:35;22.47;;;16.10;;
13967;SDS011;39536;52.198;9.920;2023-02-22T01:03:05;23.23;;;16.93;;
13967;SDS011;39536;52.198;9.920;2023-02-22T01:05:32;20.33;;;16.43;;
13967;SDS011;39536;52.198;9.920;2023-02-22T01:08:00;27.47;;;17.63;;
13967;SDS011;39536;52.198;9.920;2023-02-22T01:10:28;22.63;;;16.57;;
13967;SDS011;39536;52.198;9.920;2023-02-22T01:12:56;22.03;;;14.47;;
13967;SDS011;39536;52.198;9.920;2023-02-22T01:15:24;17.70;;;15.33;;
13967;SDS011;39536;52.198;9.920;2023-02-22T01:17:53;24.37;;;16.60;;
13967;SDS011;39536;52.198;9.920;2023-02-22T01:20:21;23.97;;;15.17;;
13967;SDS011;39536;52.198;9.920;2023-02-22T01:22:50;23.07;;;15.53;;
13967;SDS011;39536;52.198;9.920;2023-02-22T01:25:19;20.23;;;14.17;;
13967;SDS011;39536;52.198;9.920;2023-02-22T01:27:48;21.87;;;15.73;;
13967;SDS011;39536;52.198;9.920;2023-02-22T01:30:15;24.33;;;15.80;;
13967;SDS011;39536;52.198;9.920;2023-02-22T01:32:46;23.00;;;16.17;;
13967;SDS011;39536;52.198;9.920;2023-02-22T01:35:13;21.00;;;15.83;;
13967;SDS011;39536;52.198;9.920;2023-02-22T01:37:43;20.50;;;16.03;;
13967;SDS011;39536;52.198;9.920;2023-02-22T01:40:14;23.93;;;16.37;;
13967;SDS011;39536;52.198;9.920;2023-02-22T01:42:42;20.23;;;15.63;;
13967;SDS011;39536;52.198;9.920;2023-02-22T01:45:29;25.23;;;16.40;;
13967;SDS011;39536;52.198;9.920;2023-02-22T01:48:10;23.10;;;15.60;;
13967;SDS011;39536;52.198;9.920;2023-02-22T01:50:41;24.13;;;16.03;;
13967;SDS011;39536;52.198;9.920;2023-02-22T01:53:12;23.33;;;15.13;;
13967;SDS011;39536;52.198;9.920;2023-02-22T01:55:41;20.77;;;15.07;;
13967;SDS011;39536;52.198;9.920;2023-02-22T01:58:09;20.10;;;15.43;;
13967;SDS011;39536;52.198;9.920;2023-02-22T02:00:37;21.90;;;16.00;;
13967;SDS011;39536;52.198;9.920;2023-02-22T02:03:05;22.43;;;16.07;;
13967;SDS011;39536;52.198;9.920;2023-02-22T02:05:35;20.50;;;15.73;;
13967;SDS011;39536;52.198;9.920;2023-02-22T02:08:04;21.80;;;15.70;;
13967;SDS011;39536;52.198;9.920;2023-02-22T02:10:39;20.17;;;14.90;;
13967;SDS011;39536;52.198;9.920;2023-02-22T02:13:07;23.27;;;16.37;;
13967;SDS011;39536;52.198;9.920;2023-02-22T02:15:34;27.93;;;16.50;;
13967;SDS011;39536;52.198;9.920;2023-02-22T02:18:03;21.20;;;15.13;;
13967;SDS011;39536;52.198;9.920;2023-02-22T02:20:32;25.93;;;15.80;;
13967;SDS011;39536;52.198;9.920;2023-02-22T02:23:09;26.40;;;16.90;;
13967;SDS011;39536;52.198;9.920;2023-02-22T02:26:02;23.50;;;16.63;;
13967;SDS011;39536;52.198;9.920;2023-02-22T02:28:52;21.47;;;16.63;;
13967;SDS011;39536;52.198;9.920;2023-02-22T02:31:55;21.53;;;15.50;;
13967;SDS011;39536;52.198;9.920;2023-02-22T02:34:37;21.13;;;15.53;;
13967;SDS011;39536;52.198;9.920;2023-02-22T02:37:14;26.33;;;16.17;;
13967;SDS011;39536;52.198;9.920;2023-02-22T02:39:49;20.83;;;15.10;;
13967;SDS011;39536;52.198;9.920;2023-02-22T02:42:21;23.87;;;16.53;;
13967;SDS011;39536;52.198;9.920;2023-02-22T02:44:54;24.00;;;15.60;;
13967;SDS011;39536;52.198;9.920;2023-02-22T02:47:29;20.37;;;15.33;;
13967;SDS011;39536;52.198;9.920;2023-02-22T02:50:00;21.10;;;15.23;;
13967;SDS011;39536;52.198;9.920;2023-02-22T02:52:31;21.63;;;16.27;;
13967;SDS011;39536;52.198;9.920;2023-02-22T02:55:00;22.43;;;15.23;;
13967;SDS011;39536;52.198;9.920;2023-02-22T02:57:29;20.50;;;15.20;;
13967;SDS011;39536;52.198;9.920;2023-02-22T02:59:56;23.37;;;15.70;;
13967;SDS011;39536;52.198;9.920;2023-02-22T03:02:30;19.73;;;15.33;;
13967;SDS011;39536;52.198;9.920;2023-02-22T03:05:13;21.00;;;14.30;;
13967;SDS011;39536;52.198;9.920;2023-02-22T03:07:50;21.27;;;16.37;;
13967;SDS011;39536;52.198;9.920;2023-02-22T03:10:28;20.33;;;15.73;;
13967;SDS011;39536;52.198;9.920;2023-02-22T03:13:06;20.73;;;15.83;;
13967;SDS011;39536;52.198;9.920;2023-02-22T03:15:43;18.77;;;14.70;;
13967;SDS011;39536;52.198;9.920;2023-02-22T03:18:19;19.80;;;14.40;;
13967;SDS011;39536;52.198;9.920;2023-02-22T03:20:54;22.30;;;16.20;;
13967;SDS011;39536;52.198;9.920;2023-02-22T03:23:28;22.43;;;15.10;;
13967;SDS011;39536;52.198;9.920;2023-02-22T03:25:59;25.10;;;16.40;;
13967;SDS011;39536;52.198;9.920;2023-02-22T03:28:29;22.83;;;15.33;;
13967;SDS011;39536;52.198;9.920;2023-02-22T03:30:59;23.87;;;16.00;;
13967;SDS011;39536;52.198;9.920;2023-02-22T03:33:31;23.03;;;16.10;;
13967;SDS011;39536;52.198;9.920;2023-02-22T03:36:03;21.57;;;16.23;;
13967;SDS011;39536;52.198;9.920;2023-02-22T03:38:35;25.60;;;16.10;;
13967;SDS011;39536;52.198;9.920;2023-02-22T03:41:03;26.47;;;17.13;;
13967;SDS011;39536;52.198;9.920;2023-02-22T03:43:33;25.83;;;15.23;;
13967;SDS011;39536;52.198;9.920;2023-02-22T03:46:04;28.47;;;18.10;;
13967;SDS011;39536;52.198;9.920;2023-02-22T03:48:36;24.03;;;16.50;;
13967;SDS011;39536;52.198;9.920;2023-02-22T03:51:09;25.30;;;17.03;;
13967;SDS011;39536;52.198;9.920;2023-02-22T03:53:39;22.27;;;15.17;;
13967;SDS011;39536;52.198;9.920;2023-02-22T03:56:09;21.43;;;15.97;;
13967;SDS011;39536;52.198;9.920;2023-02-22T03:58:39;23.10;;;15.07;;
13967;SDS011;39536;52.198;9.920;2023-02-22T04:01:09;22.27;;;15.03;;
13967;SDS011;39536;52.198;9.920;2023-02-22T04:03:38;18.87;;;14.83;;
13967;SDS011;39536;52.198;9.920;2023-02-22T04:06:06;20.53;;;14.10;;
13967;SDS011;39536;52.198;9.920;2023-02-22T04:08:33;19.87;;;15.17;;
13967;SDS011;39536;52.198;9.920;2023-02-22T04:11:00;18.90;;;14.43;;
13967;SDS011;39536;52.198;9.920;2023-02-22T04:13:27;19.67;;;14.83;;
13967;SDS011;39536;52.198;9.920;2023-02-22T04:15:53;23.40;;;14.43;;
13967;SDS011;39536;52.198;9.920;2023-02-22T04:18:20;17.03;;;13.97;;
13967;SDS011;39536;52.198;9.920;2023-02-22T04:20:48;16.80;;;13.80;;
13967;SDS011;39536;52.198;9.920;2023-02-22T04:23:14;18.93;;;13.10;;
13967;SDS011;39536;52.198;9.920;2023-02-22T04:25:41;17.67;;;14.80;;
13967;SDS011;39536;52.198;9.920;2023-02-22T04:28:07;17.43;;;13.40;;
13967;SDS011;39536;52.198;9.920;2023-02-22T04:30:34;16.27;;;12.80;;
13967;SDS011;39536;52.198;9.920;2023-02-22T04:33:00;19.10;;;14.03;;
13967;SDS011;39536;52.198;9.920;2023-02-22T04:35:27;17.90;;;13.57;;
13967;SDS011;39536;52.198;9.920;2023-02-22T04:37:55;23.50;;;16.20;;
13967;SDS011;39536;52.198;9.920;2023-02-22T04:40:22;19.13;;;14.63;;
13967;SDS011;39536;52.198;9.920;2023-02-22T04:42:48;20.17;;;14.53;;
13967;SDS011;39536;52.198;9.920;2023-02-22T04:45:15;17.20;;;14.53;;
13967;SDS011;39536;52.198;9.920;2023-02-22T04:47:42;20.83;;;14.27;;
13967;SDS011;39536;52.198;9.920;2023-02-22T04:50:09;19.60;;;13.80;;
13967;SDS011;39536;52.198;9.920;2023-02-22T04:52:37;17.37;;;14.20;;
13967;SDS011;39536;52.198;9.920;2023-02-22T04:55:05;21.27;;;13.90;;
13967;SDS011;39536;52.198;9.920;2023-02-22T04:57:32;16.93;;;13.20;;
13967;SDS011;39536;52.198;9.920;2023-02-22T04:59:59;16.27;;;13.30;;
13967;SDS011;39536;52.198;9.920;2023-02-22T05:02:25;18.10;;;13.50;;
13967;SDS011;39536;52.198;9.920;2023-02-22T05:04:52;19.00;;;13.93;;
13967;SDS011;39536;52.198;9.920;2023-02-22T05:07:18;21.80;;;14.07;;
13967;SDS011;39536;52.198;9.920;2023-02-22T05:09:45;21.13;;;14.33;;
13967;SDS011;39536;52.198;9.920;2023-02-22T05:12:13;16.67;;;12.83;;
13967;SDS011;39536;52.198;9.920;2023-02-22T05:14:40;18.80;;;13.37;;
13967;SDS011;39536;52.198;9.920;2023-02-22T05:17:06;21.17;;;13.50;;
13967;SDS011;39536;52.198;9.920;2023-02-22T05:19:33;16.07;;;13.17;;
13967;SDS011;39536;52.198;9.920;2023-02-22T05:22:02;17.20;;;13.03;;
13967;SDS011;39536;52.198;9.920;2023-02-22T05:24:29;19.27;;;14.30;;
13967;SDS011;39536;52.198;9.920;2023-02-22T05:26:56;18.40;;;14.40;;
13967;SDS011;39536;52.198;9.920;2023-02-22T05:29:24;22.07;;;14.00;;
13967;SDS011;39536;52.198;9.920;2023-02-22T05:31:51;16.17;;;13.77;;
13967;SDS011;39536;52.198;9.920;2023-02-22T05:34:18;19.87;;;13.70;;
13967;SDS011;39536;52.198;9.920;2023-02-22T05:36:44;17.03;;;13.47;;
13967;SDS011;39536;52.198;9.920;2023-02-22T05:39:11;17.77;;;13.27;;
13967;SDS011;39536;52.198;9.920;2023-02-22T05:41:38;18.80;;;14.07;;
13967;SDS011;39536;52.198;9.920;2023-02-22T05:44:04;15.37;;;13.33;;
13967;SDS011;39536;52.198;9.920;2023-02-22T05:46:32;19.97;;;14.13;;
13967;SDS011;39536;52.198;9.920;2023-02-22T05:48:59;18.53;;;12.23;;
13967;SDS011;39536;52.198;9.920;2023-02-22T05:51:25;17.57;;;14.77;;
13967;SDS011;39536;52.198;9.920;2023-02-22T05:53:52;18.40;;;13.13;;
13967;SDS011;39536;52.198;9.920;2023-02-22T05:56:19;16.17;;;12.63;;
13967;SDS011;39536;52.198;9.920;2023-02-22T05:58:47;20.53;;;13.73;;
13967;SDS011;39536;52.198;9.920;2023-02-22T06:01:13;18.37;;;13.73;;
13967;SDS011;39536;52.198;9.920;2023-02-22T06:03:41;19.90;;;12.47;;
13967;SDS011;39536;52.198;9.920;2023-02-22T06:06:08;15.67;;;12.73;;
13967;SDS011;39536;52.198;9.920;2023-02-22T06:08:34;19.60;;;12.33;;
13967;SDS011;39536;52.198;9.920;2023-02-22T06:11:01;17.43;;;12.37;;
13967;SDS011;39536;52.198;9.920;2023-02-22T06:13:28;14.30;;;11.73;;
13967;SDS011;39536;52.198;9.920;2023-02-22T06:15:55;16.50;;;13.00;;
13967;SDS011;39536;52.198;9.920;2023-02-22T06:18:30;17.30;;;12.20;;
13967;SDS011;39536;52.198;9.920;2023-02-22T06:21:07;16.87;;;12.67;;
13967;SDS011;39536;52.198;9.920;2023-02-22T06:23:41;13.67;;;11.47;;
13967;SDS011;39536;52.198;9.920;2023-02-22T06:26:09;16.53;;;12.80;;
13967;SDS011;39536;52.198;9.920;2023-02-22T06:28:39;13.37;;;11.87;;
13967;SDS011;39536;52.198;9.920;2023-02-22T06:31:14;19.53;;;12.00;;
13967;SDS011;39536;52.198;9.920;2023-02-22T06:33:45;16.37;;;12.50;;
13967;SDS011;39536;52.198;9.920;2023-02-22T06:36:27;15.60;;;10.87;;
13967;SDS011;39536;52.198;9.920;2023-02-22T06:39:10;17.27;;;12.80;;
13967;SDS011;39536;52.198;9.920;2023-02-22T06:41:41;14.70;;;11.70;;
13967;SDS011;39536;52.198;9.920;2023-02-22T06:44:11;15.83;;;11.63;;
13967;SDS011;39536;52.198;9.920;2023-02-22T06:46:53;14.73;;;12.43;;
13967;SDS011;39536;52.198;9.920;2023-02-22T06:49:21;13.33;;;11.67;;
13967;SDS011;39536;52.198;9.920;2023-02-22T06:51:53;15.97;;;11.67;;
13967;SDS011;39536;52.198;9.920;2023-02-22T06:54:22;14.83;;;11.70;;
13967;SDS011;39536;52.198;9.920;2023-02-22T06:56:55;17.77;;;13.07;;
13967;SDS011;39536;52.198;9.920;2023-02-22T06:59:27;15.13;;;12.13;;
13967;SDS011;39536;52.198;9.920;2023-02-22T07:01:58;22.70;;;12.70;;
13967;SDS011;39536;52.198;9.920;2023-02-22T07:04:28;14.77;;;11.67;;
13967;SDS011;39536;52.198;9.920;2023-02-22T07:06:58;15.73;;;12.73;;
13967;SDS011;39536;52.198;9.920;2023-02-22T07:09:30;13.83;;;12.00;;
13967;SDS011;39536;52.198;9.920;2023-02-22T07:11:57;15.97;;;12.10;;
13967;SDS011;39536;52.198;9.920;2023-02-22T07:14:23;13.80;;;12.27;;
13967;SDS011;39536;52.198;9.920;2023-02-22T07:16:50;13.70;;;10.70;;
13967;SDS011;39536;52.198;9.920;2023-02-22T07:22:07;17.93;;;11.57;;
13967;SDS011;39536;52.198;9.920;2023-02-22T07:24:34;17.43;;;11.70;;
13967;SDS011;39536;52.198;9.920;2023-02-22T07:27:00;13.07;;;11.00;;
13967;SDS011;39536;52.198;9.920;2023-02-22T07:29:27;12.80;;;11.50;;
13967;SDS011;39536;52.198;9.920;2023-02-22T07:31:55;12.40;;;11.10;;
13967;SDS011;39536;52.198;9.920;2023-02-22T07:34:29;14.00;;;10.53;;
13967;SDS011;39536;52.198;9.920;2023-02-22T07:36:55;11.97;;;10.77;;
13967;SDS011;39536;52.198;9.920;2023-02-22T07:42:23;10.70;;;9.63;;
13967;SDS011;39536;52.198;9.920;2023-02-22T07:44:49;15.70;;;10.57;;
13967;SDS011;39536;52.198;9.920;2023-02-22T07:47:16;13.33;;;9.80;;
13967;SDS011;39536;52.198;9.920;2023-02-22T07:49:44;12.90;;;11.43;;
13967;SDS011;39536;52.198;9.920;2023-02-22T07:52:11;12.70;;;10.63;;
13967;SDS011;39536;52.198;9.920;2023-02-22T07:54:38;21.73;;;12.03;;
13967;SDS011;39536;52.198;9.920;2023-02-22T07:57:04;15.77;;;11.07;;
13967;SDS011;39536;52.198;9.920;2023-02-22T07:59:32;13.33;;;10.77;;
13967;SDS011;39536;52.198;9.920;2023-02-22T08:01:59;13.90;;;10.53;;
13967;SDS011;39536;52.198;9.920;2023-02-22T08:04:25;14.13;;;12.13;;
13967;SDS011;39536;52.198;9.920;2023-02-22T08:06:52;20.27;;;12.23;;
13967;SDS011;39536;52.198;9.920;2023-02-22T08:09:22;22.30;;;11.83;;
13967;SDS011;39536;52.198;9.920;2023-02-22T08:11:49;14.37;;;12.43;;
13967;SDS011;39536;52.198;9.920;2023-02-22T08:14:15;18.27;;;13.90;;
13967;SDS011;39536;52.198;9.920;2023-02-22T08:16:43;23.93;;;15.67;;
13967;SDS011;39536;52.198;9.920;2023-02-22T08:19:10;22.93;;;16.90;;
13967;SDS011;39536;52.198;9.920;2023-02-22T08:21:36;18.03;;;14.90;;
13967;SDS011;39536;52.198;9.920;2023-02-22T08:24:03;18.67;;;15.93;;
13967;SDS011;39536;52.198;9.920;2023-02-22T08:26:30;18.93;;;15.33;;
13967;SDS011;39536;52.198;9.920;2023-02-22T08:28:57;19.73;;;14.83;;
13967;SDS011;39536;52.198;9.920;2023-02-22T08:31:23;17.97;;;15.13;;
13967;SDS011;39536;52.198;9.920;2023-02-22T08:33:54;19.10;;;15.30;;
13967;SDS011;39536;52.198;9.920;2023-02-22T08:36:21;21.80;;;14.13;;
13967;SDS011;39536;52.198;9.920;2023-02-22T08:38:47;18.40;;;15.50;;
13967;SDS011;39536;52.198;9.920;2023-02-22T08:41:14;17.20;;;14.83;;
13967;SDS011;39536;52.198;9.920;2023-02-22T08:43:40;27.43;;;16.20;;
13967;SDS011;39536;52.198;9.920;2023-02-22T08:46:07;17.40;;;14.47;;
13967;SDS011;39536;52.198;9.920;2023-02-22T08:48:33;16.57;;;13.90;;
13967;SDS011;39536;52.198;9.920;2023-02-22T08:51:04;16.57;;;14.60;;
13967;SDS011;39536;52.198;9.920;2023-02-22T08:53:34;18.23;;;13.50;;
13967;SDS011;39536;52.198;9.920;2023-02-22T08:56:03;16.90;;;15.13;;
13967;SDS011;39536;52.198;9.920;2023-02-22T08:58:30;22.40;;;14.63;;
13967;SDS011;39536;52.198;9.920;2023-02-22T09:00:56;20.00;;;15.17;;
13967;SDS011;39536;52.198;9.920;2023-02-22T09:03:23;20.17;;;15.27;;
13967;SDS011;39536;52.198;9.920;2023-02-22T09:05:55;19.50;;;15.43;;
13967;SDS011;39536;52.198;9.920;2023-02-22T09:08:24;17.67;;;14.27;;
13967;SDS011;39536;52.198;9.920;2023-02-22T09:10:51;17.23;;;13.97;;
13967;SDS011;39536;52.198;9.920;2023-02-22T09:13:19;17.30;;;13.97;;
13967;SDS011;39536;52.198;9.920;2023-02-22T09:15:46;15.30;;;13.40;;
13967;SDS011;39536;52.198;9.920;2023-02-22T09:18:13;20.67;;;14.83;;
13967;SDS011;39536;52.198;9.920;2023-02-22T09:20:42;16.17;;;14.07;;
13967;SDS011;39536;52.198;9.920;2023-02-22T09:23:09;17.03;;;14.63;;
13967;SDS011;39536;52.198;9.920;2023-02-22T09:25:37;21.47;;;15.03;;
13967;SDS011;39536;52.198;9.920;2023-02-22T09:28:05;15.37;;;12.23;;
13967;SDS011;39536;52.198;9.920;2023-02-22T09:30:32;18.63;;;15.17;;
13967;SDS011;39536;52.198;9.920;2023-02-22T09:33:01;14.67;;;13.07;;
13967;SDS011;39536;52.198;9.920;2023-02-22T09:35:48;18.23;;;13.73;;
13967;SDS011;39536;52.198;9.920;2023-02-22T09:38:16;19.27;;;14.07;;
13967;SDS011;39536;52.198;9.920;2023-02-22T09:40:49;16.70;;;13.93;;
13967;SDS011;39536;52.198;9.920;2023-02-22T09:43:20;16.63;;;13.73;;
13967;SDS011;39536;52.198;9.920;2023-02-22T09:48:59;18.83;;;14.27;;
13967;SDS011;39536;52.198;9.920;2023-02-22T09:51:32;15.67;;;13.70;;
13967;SDS011;39536;52.198;9.920;2023-02-22T09:54:05;15.30;;;12.93;;
13967;SDS011;39536;52.198;9.920;2023-02-22T09:56:42;15.03;;;13.53;;
13967;SDS011;39536;52.198;9.920;2023-02-22T09:59:12;15.53;;;13.67;;
13967;SDS011;39536;52.198;9.920;2023-02-22T10:01:53;16.97;;;14.97;;
13967;SDS011;39536;52.198;9.920;2023-02-22T10:04:26;17.73;;;15.33;;
13967;SDS011;39536;52.198;9.920;2023-02-22T10:07:05;15.07;;;13.53;;
13967;SDS011;39536;52.198;9.920;2023-02-22T10:09:42;16.53;;;14.60;;
13967;SDS011;39536;52.198;9.920;2023-02-22T10:12:16;17.00;;;15.17;;
13967;SDS011;39536;52.198;9.920;2023-02-22T10:17:52;18.13;;;14.57;;
13967;SDS011;39536;52.198;9.920;2023-02-22T10:23:48;17.00;;;14.97;;
13967;SDS011;39536;52.198;9.920;2023-02-22T10:26:24;16.23;;;14.53;;
13967;SDS011;39536;52.198;9.920;2023-02-22T10:31:25;15.10;;;13.50;;
13967;SDS011;39536;52.198;9.920;2023-02-22T10:33:56;17.10;;;14.80;;
13967;SDS011;39536;52.198;9.920;2023-02-22T10:36:25;16.07;;;13.70;;
13967;SDS011;39536;52.198;9.920;2023-02-22T10:38:53;16.40;;;14.63;;
13967;SDS011;39536;52.198;9.920;2023-02-22T10:41:25;15.53;;;14.03;;
13967;SDS011;39536;52.198;9.920;2023-02-22T10:43:54;17.50;;;13.90;;
13967;SDS011;39536;52.198;9.920;2023-02-22T10:46:21;16.87;;;15.07;;
13967;SDS011;39536;52.198;9.920;2023-02-22T10:48:51;15.83;;;13.00;;
13967;SDS011;39536;52.198;9.920;2023-02-22T10:51:20;16.37;;;14.63;;
13967;SDS011;39536;52.198;9.920;2023-02-22T10:53:52;17.40;;;13.50;;
13967;SDS011;39536;52.198;9.920;2023-02-22T10:56:24;18.27;;;13.93;;
13967;SDS011;39536;52.198;9.920;2023-02-22T10:58:53;15.17;;;13.67;;
13967;SDS011;39536;52.198;9.920;2023-02-22T11:01:24;15.17;;;13.23;;
13967;SDS011;39536;52.198;9.920;2023-02-22T11:04:09;14.80;;;12.43;;
13967;SDS011;39536;52.198;9.920;2023-02-22T11:06:37;15.87;;;13.53;;
13967;SDS011;39536;52.198;9.920;2023-02-22T11:09:06;14.77;;;13.30;;
13967;SDS011;39536;52.198;9.920;2023-02-22T11:11:38;13.67;;;12.37;;
13967;SDS011;39536;52.198;9.920;2023-02-22T11:14:07;15.17;;;13.03;;
13967;SDS011;39536;52.198;9.920;2023-02-22T11:16:36;14.57;;;13.27;;
13967;SDS011;39536;52.198;9.920;2023-02-22T11:19:08;12.83;;;11.63;;
13967;SDS011;39536;52.198;9.920;2023-02-22T11:21:41;13.40;;;12.07;;
13967;SDS011;39536;52.198;9.920;2023-02-22T11:24:10;13.77;;;12.50;;
13967;SDS011;39536;52.198;9.920;2023-02-22T11:26:40;12.33;;;11.23;;
13967;SDS011;39536;52.198;9.920;2023-02-22T11:29:10;11.90;;;10.80;;
13967;SDS011;39536;52.198;9.920;2023-02-22T11:31:42;16.17;;;11.83;;
13967;SDS011;39536;52.198;9.920;2023-02-22T11:34:25;13.47;;;11.90;;
13967;SDS011;39536;52.198;9.920;2023-02-22T11:36:57;12.60;;;11.40;;
13967;SDS011;39536;52.198;9.920;2023-02-22T11:40:03;13.37;;;11.10;;
13967;SDS011;39536;52.198;9.920;2023-02-22T11:42:36;10.63;;;9.67;;
13967;SDS011;39536;52.198;9.920;2023-02-22T11:45:10;11.17;;;10.07;;
13967;SDS011;39536;52.198;9.920;2023-02-22T11:47:48;10.53;;;9.70;;
13967;SDS011;39536;52.198;9.920;2023-02-22T11:50:22;11.23;;;10.13;;
13967;SDS011;39536;52.198;9.920;2023-02-22T11:52:54;10.93;;;9.83;;
13967;SDS011;39536;52.198;9.920;2023-02-22T11:55:35;13.60;;;10.53;;
13967;SDS011;39536;52.198;9.920;2023-02-22T11:58:17;11.10;;;10.10;;
13967;SDS011;39536;52.198;9.920;2023-02-22T12:00:56;10.63;;;9.40;;
13967;SDS011;39536;52.198;9.920;2023-02-22T12:03:27;9.83;;;8.90;;
13967;SDS011;39536;52.198;9.920;2023-02-22T12:06:21;8.90;;;8.00;;
13967;SDS011;39536;52.198;9.920;2023-02-22T12:09:04;9.93;;;8.93;;
13967;SDS011;39536;52.198;9.920;2023-02-22T12:11:38;9.53;;;8.63;;
13967;SDS011;39536;52.198;9.920;2023-02-22T12:14:20;8.33;;;7.63;;
13967;SDS011;39536;52.198;9.920;2023-02-22T12:17:04;9.00;;;8.20;;
13967;SDS011;39536;52.198;9.920;2023-02-22T12:19:48;8.80;;;7.90;;
13967;SDS011;39536;52.198;9.920;2023-02-22T12:22:18;7.93;;;7.13;;
13967;SDS011;39536;52.198;9.920;2023-02-22T12:24:52;8.93;;;8.03;;
13967;SDS011;39536;52.198;9.920;2023-02-22T12:27:24;7.57;;;6.97;;
13967;SDS011;39536;52.198;9.920;2023-02-22T12:29:54;8.47;;;7.57;;
13967;SDS011;39536;52.198;9.920;2023-02-22T12:32:27;7.70;;;6.87;;
13967;SDS011;39536;52.198;9.920;2023-02-22T12:35:02;8.93;;;7.00;;
13967;SDS011;39536;52.198;9.920;2023-02-22T12:37:42;8.93;;;7.70;;
13967;SDS011;39536;52.198;9.920;2023-02-22T12:40:18;7.93;;;7.13;;
13967;SDS011;39536;52.198;9.920;2023-02-22T12:42:52;7.40;;;6.80;;
13967;SDS011;39536;52.198;9.920;2023-02-22T12:45:27;7.37;;;6.73;;
13967;SDS011;39536;52.198;9.920;2023-02-22T12:47:59;9.40;;;7.90;;
13967;SDS011;39536;52.198;9.920;2023-02-22T12:50:35;7.27;;;6.67;;
13967;SDS011;39536;52.198;9.920;2023-02-22T12:53:05;7.40;;;6.70;;
13967;SDS011;39536;52.198;9.920;2023-02-22T12:55:40;8.23;;;7.33;;
13967;SDS011;39536;52.198;9.920;2023-02-22T12:58:14;8.03;;;7.23;;
13967;SDS011;39536;52.198;9.920;2023-02-22T13:00:50;7.50;;;6.90;;
13967;SDS011;39536;52.198;9.920;2023-02-22T13:03:26;7.77;;;6.87;;
13967;SDS011;39536;52.198;9.920;2023-02-22T13:05:57;8.63;;;7.70;;
13967;SDS011;39536;52.198;9.920;2023-02-22T13:08:35;8.07;;;7.17;;
13967;SDS011;39536;52.198;9.920;2023-02-22T13:11:09;11.77;;;8.53;;
13967;SDS011;39536;52.198;9.920;2023-02-22T13:13:45;8.40;;;7.60;;
13967;SDS011;39536;52.198;9.920;2023-02-22T13:16:25;11.73;;;7.60;;
13967;SDS011;39536;52.198;9.920;2023-02-22T13:19:01;8.63;;;7.43;;
13967;SDS011;39536;52.198;9.920;2023-02-22T13:21:35;8.60;;;7.47;;
13967;SDS011;39536;52.198;9.920;2023-02-22T13:24:14;7.87;;;7.07;;
13967;SDS011;39536;52.198;9.920;2023-02-22T13:26:47;8.67;;;7.80;;
13967;SDS011;39536;52.198;9.920;2023-02-22T13:29:18;7.17;;;6.50;;
13967;SDS011;39536;52.198;9.920;2023-02-22T13:31:54;7.70;;;7.00;;
13967;SDS011;39536;52.198;9.920;2023-02-22T13:34:41;7.67;;;7.00;;
13967;SDS011;39536;52.198;9.920;2023-02-22T13:37:24;8.17;;;7.47;;
13967;SDS011;39536;52.198;9.920;2023-02-22T13:46:30;6.53;;;5.93;;
13967;SDS011;39536;52.198;9.920;2023-02-22T13:49:15;7.13;;;6.43;;
13967;SDS011;39536;52.198;9.920;2023-02-22T13:51:55;7.43;;;6.83;;
13967;SDS011;39536;52.198;9.920;2023-02-22T13:54:26;6.83;;;6.13;;
13967;SDS011;39536;52.198;9.920;2023-02-22T13:57:01;9.57;;;6.63;;
13967;SDS011;39536;52.198;9.920;2023-02-22T13:59:29;6.97;;;6.37;;
13967;SDS011;39536;52.198;9.920;2023-02-22T14:01:59;7.97;;;6.73;;
13967;SDS011;39536;52.198;9.920;2023-02-22T14:13:04;6.17;;;5.53;;
13967;SDS011;39536;52.198;9.920;2023-02-22T14:15:31;6.57;;;5.97;;
13967;SDS011;39536;52.198;9.920;2023-02-22T14:17:59;6.27;;;5.67;;
13967;SDS011;39536;52.198;9.920;2023-02-22T14:20:27;6.43;;;5.80;;
13967;SDS011;39536;52.198;9.920;2023-02-22T14:22:57;6.13;;;5.63;;
13967;SDS011;39536;52.198;9.920;2023-02-22T14:25:44;8.33;;;5.43;;
13967;SDS011;39536;52.198;9.920;2023-02-22T14:31:08;5.10;;;4.70;;
13967;SDS011;39536;52.198;9.920;2023-02-22T14:36:22;7.37;;;5.20;;
13967;SDS011;39536;52.198;9.920;2023-02-22T14:38:51;5.23;;;4.73;;
13967;SDS011;39536;52.198;9.920;2023-02-22T14:41:23;5.00;;;4.60;;
13967;SDS011;39536;52.198;9.920;2023-02-22T14:43:55;4.50;;;4.10;;
13967;SDS011;39536;52.198;9.920;2023-02-22T14:46:24;5.27;;;4.53;;
13967;SDS011;39536;52.198;9.920;2023-02-22T14:48:58;5.17;;;4.63;;
13967;SDS011;39536;52.198;9.920;2023-02-22T14:51:30;4.67;;;4.27;;
13967;SDS011;39536;52.198;9.920;2023-02-22T14:54:05;4.60;;;4.20;;
13967;SDS011;39536;52.198;9.920;2023-02-22T14:56:37;4.63;;;4.23;;
13967;SDS011;39536;52.198;9.920;2023-02-22T14:59:12;4.90;;;4.40;;
13967;SDS011;39536;52.198;9.920;2023-02-22T15:01:42;3.60;;;3.30;;
13967;SDS011;39536;52.198;9.920;2023-02-22T15:04:19;3.47;;;3.17;;
13967;SDS011;39536;52.198;9.920;2023-02-22T15:06:49;3.77;;;3.53;;
13967;SDS011;39536;52.198;9.920;2023-02-22T15:09:17;3.90;;;3.60;;
13967;SDS011;39536;52.198;9.920;2023-02-22T15:11:49;4.00;;;3.50;;
13967;SDS011;39536;52.198;9.920;2023-02-22T15:14:17;5.67;;;3.53;;
13967;SDS011;39536;52.198;9.920;2023-02-22T15:16:46;3.50;;;3.20;;
13967;SDS011;39536;52.198;9.920;2023-02-22T15:19:16;3.83;;;3.53;;
13967;SDS011;39536;52.198;9.920;2023-02-22T15:21:50;4.00;;;3.60;;
13967;SDS011;39536;52.198;9.920;2023-02-22T15:24:19;3.50;;;3.30;;
13967;SDS011;39536;52.198;9.920;2023-02-22T15:26:49;4.37;;;3.97;;